EVA322 RCTP-LFPG
Flight info
| Callsign | EVA322 |
|---|---|
| Flight time | N/A |
| Altitude | 28000 |
| Route | CHALI1A CHALI T3 MKG A1 KADLO T1 KAPLI DCT ALLEY V10 SIKOU/K0926S0840 R339 BSE A599 LINSO/N0512F300 A599 LSO A201 LKN M890 CHG/N0507F320 M890 SULOM A466 JHANG M875 DI N644 LEMOD A909 RODAR N644 LEYLA/N0486F340 N644 ADEKI DCT BADIR DCT LAGAS DCT NOLGA UG261 TBN UM11 CRM UL746 ODERO DCT OPT DCT PEXAL DCT ENIMA DCT TEGRI DCT ARSIN/N0488F360 DCT TAGAS DCT RENKA DCT MAMOR DCT ASPAT DCT VIBOM DCT BETEX DCT IDOSA DCT TOLVU/N0484F350 DCT RAPOR DCT VEDUS |
| Aircraft | B77W/H-SDE1E2E3FGHIJ2J3J4J5M1RWXY/LB1D1 |
Departure
| Time | 2026-04-30 21:43 |
|---|---|
| Airport | Taiwan Taoyuan International Airport (RCTP) |
Arrival
| Time | N/A |
|---|---|
| Airport | Charles de Gaulle International Airport (LFPG) |
| Time | Latitude | Longitude | Altitude | Speed | Heading |
|---|---|---|---|---|---|
| 2026-04-30 21:24 | 25.07546 | 121.23378 | 106 ft | 0 kts | 319° |
| 2026-04-30 21:33 | 25.07534 | 121.23390 | 104 ft | 3 kts | 317° |
| 2026-04-30 21:33 | 25.07519 | 121.23405 | 105 ft | 3 kts | 315° |
| 2026-04-30 21:34 | 25.07505 | 121.23421 | 105 ft | 3 kts | 310° |
| 2026-04-30 21:34 | 25.07484 | 121.23457 | 105 ft | 3 kts | 285° |
| 2026-04-30 21:34 | 25.07481 | 121.23473 | 105 ft | 3 kts | 259° |
| 2026-04-30 21:35 | 25.07483 | 121.23484 | 105 ft | 3 kts | 231° |
| 2026-04-30 21:35 | 25.07485 | 121.23486 | 105 ft | 7 kts | 229° |
| 2026-04-30 21:37 | 25.07479 | 121.23479 | 106 ft | 4 kts | 229° |
| 2026-04-30 21:37 | 25.07432 | 121.23420 | 110 ft | 15 kts | 229° |
| 2026-04-30 21:37 | 25.07348 | 121.23314 | 108 ft | 23 kts | 230° |
| 2026-04-30 21:37 | 25.07270 | 121.23215 | 109 ft | 3 kts | 225° |
| 2026-04-30 21:38 | 25.07221 | 121.23193 | 111 ft | 12 kts | 179° |
| 2026-04-30 21:38 | 25.07111 | 121.23178 | 110 ft | 21 kts | 217° |
| 2026-04-30 21:38 | 25.06988 | 121.23028 | 111 ft | 32 kts | 228° |
| 2026-04-30 21:38 | 25.06833 | 121.22836 | 111 ft | 8 kts | 229° |
| 2026-04-30 21:39 | 25.06812 | 121.22808 | 113 ft | 11 kts | 229° |
| 2026-04-30 21:39 | 25.06737 | 121.22712 | 113 ft | 22 kts | 229° |
| 2026-04-30 21:39 | 25.06612 | 121.22553 | 112 ft | 23 kts | 229° |
| 2026-04-30 21:39 | 25.06537 | 121.22457 | 115 ft | 22 kts | 229° |
| 2026-04-30 21:40 | 25.06412 | 121.22299 | 114 ft | 26 kts | 229° |
| 2026-04-30 21:40 | 25.06402 | 121.22286 | 115 ft | 0 kts | 227° |
| 2026-04-30 21:40 | 25.06396 | 121.22280 | 114 ft | 5 kts | 226° |
| 2026-04-30 21:40 | 25.06343 | 121.22271 | 115 ft | 10 kts | 153° |
| 2026-04-30 21:41 | 25.06257 | 121.22338 | 118 ft | 19 kts | 136° |
| 2026-04-30 21:41 | 25.06193 | 121.22401 | 119 ft | 4 kts | 138° |
| 2026-04-30 21:41 | 25.06151 | 121.22456 | 118 ft | 12 kts | 108° |
| 2026-04-30 21:41 | 25.06158 | 121.22473 | 119 ft | 3 kts | 42° |
| 2026-04-30 21:42 | 25.06206 | 121.22511 | 116 ft | 14 kts | 45° |
| 2026-04-30 21:42 | 25.06319 | 121.22656 | 117 ft | 51 kts | 49° |
| 2026-04-30 21:42 | 25.06737 | 121.23183 | 113 ft | 130 kts | 47° |
| 2026-04-30 21:42 | 25.07497 | 121.24148 | 108 ft | 200 kts | 50° |
| 2026-04-30 21:43 | 25.08463 | 121.25406 | 662 ft | 218 kts | 51° |
| 2026-04-30 21:43 | 25.09469 | 121.26748 | 1512 ft | 238 kts | 52° |
| 2026-04-30 21:43 | 25.10529 | 121.28214 | 2367 ft | 246 kts | 52° |
| 2026-04-30 21:43 | 25.11614 | 121.29688 | 3007 ft | 250 kts | 51° |
| 2026-04-30 21:44 | 25.12891 | 121.31041 | 3392 ft | 263 kts | 35° |
| 2026-04-30 21:44 | 25.14711 | 121.31840 | 3108 ft | 309 kts | 11° |
| 2026-04-30 21:44 | 25.16898 | 121.31656 | 3557 ft | 323 kts | 340° |
| 2026-04-30 21:44 | 25.18658 | 121.30278 | 4828 ft | 301 kts | 304° |
| 2026-04-30 21:45 | 25.19484 | 121.28351 | 6310 ft | 262 kts | 288° |
| 2026-04-30 21:45 | 25.20271 | 121.26534 | 6911 ft | 268 kts | 297° |
| 2026-04-30 21:45 | 25.21282 | 121.24764 | 7314 ft | 276 kts | 301° |
| 2026-04-30 21:45 | 25.22382 | 121.23016 | 7862 ft | 279 kts | 303° |
| 2026-04-30 21:46 | 25.23524 | 121.21272 | 8405 ft | 281 kts | 304° |
| 2026-04-30 21:46 | 25.24686 | 121.19528 | 8991 ft | 282 kts | 304° |
| 2026-04-30 21:46 | 25.25843 | 121.17800 | 9693 ft | 278 kts | 304° |
| 2026-04-30 21:46 | 25.26987 | 121.16091 | 10288 ft | 277 kts | 303° |
| 2026-04-30 21:47 | 25.27840 | 121.14169 | 10405 ft | 288 kts | 279° |
| 2026-04-30 21:47 | 25.27795 | 121.11919 | 10550 ft | 303 kts | 255° |
| 2026-04-30 21:47 | 25.26863 | 121.09778 | 10685 ft | 321 kts | 233° |
| 2026-04-30 21:47 | 25.25355 | 121.07890 | 10867 ft | 335 kts | 230° |
| 2026-04-30 21:48 | 25.23757 | 121.05924 | 10982 ft | 353 kts | 230° |
| 2026-04-30 21:48 | 25.22147 | 121.03908 | 11484 ft | 356 kts | 231° |
| 2026-04-30 21:48 | 25.20480 | 121.01811 | 12068 ft | 360 kts | 230° |
| 2026-04-30 21:48 | 25.18724 | 120.99819 | 12595 ft | 365 kts | 226° |
| 2026-04-30 21:49 | 25.16892 | 120.97907 | 13141 ft | 369 kts | 226° |
| 2026-04-30 21:49 | 25.14997 | 120.95926 | 13685 ft | 373 kts | 226° |
| 2026-04-30 21:49 | 25.13136 | 120.93955 | 14100 ft | 378 kts | 227° |
| 2026-04-30 21:49 | 25.11234 | 120.91917 | 14495 ft | 384 kts | 227° |
| 2026-04-30 21:50 | 25.09316 | 120.89846 | 14953 ft | 388 kts | 227° |
| 2026-04-30 21:50 | 25.07383 | 120.87757 | 15433 ft | 390 kts | 227° |
| 2026-04-30 21:50 | 25.05438 | 120.85655 | 15926 ft | 393 kts | 227° |
| 2026-04-30 21:50 | 25.03480 | 120.83541 | 16382 ft | 396 kts | 227° |
| 2026-04-30 21:51 | 25.01505 | 120.81412 | 16839 ft | 399 kts | 227° |
| 2026-04-30 21:51 | 24.99511 | 120.79264 | 17274 ft | 402 kts | 227° |
| 2026-04-30 21:51 | 24.97504 | 120.77103 | 17739 ft | 405 kts | 227° |
| 2026-04-30 21:51 | 24.95483 | 120.74927 | 18203 ft | 407 kts | 227° |
| 2026-04-30 21:52 | 24.93449 | 120.72740 | 18613 ft | 410 kts | 227° |
| 2026-04-30 21:52 | 24.91403 | 120.70540 | 18999 ft | 412 kts | 227° |
| 2026-04-30 21:52 | 24.89344 | 120.68328 | 19386 ft | 415 kts | 227° |
| 2026-04-30 21:52 | 24.87277 | 120.66109 | 19787 ft | 416 kts | 227° |
| 2026-04-30 21:53 | 24.85196 | 120.63873 | 20166 ft | 419 kts | 227° |
| 2026-04-30 21:53 | 24.83102 | 120.61625 | 20526 ft | 422 kts | 226° |
| 2026-04-30 21:53 | 24.80992 | 120.59364 | 20931 ft | 424 kts | 226° |
| 2026-04-30 21:53 | 24.78875 | 120.57094 | 21271 ft | 427 kts | 226° |
| 2026-04-30 21:54 | 24.76743 | 120.54808 | 21670 ft | 429 kts | 226° |
| 2026-04-30 21:54 | 24.74596 | 120.52510 | 22006 ft | 432 kts | 226° |
| 2026-04-30 21:54 | 24.72415 | 120.50236 | 22401 ft | 433 kts | 223° |
| 2026-04-30 21:54 | 24.70010 | 120.48194 | 22653 ft | 440 kts | 217° |
| 2026-04-30 21:55 | 24.67458 | 120.46314 | 23100 ft | 440 kts | 216° |
| 2026-04-30 21:55 | 24.64882 | 120.44485 | 23462 ft | 443 kts | 216° |
| 2026-04-30 21:55 | 24.62283 | 120.42617 | 23682 ft | 448 kts | 216° |
| 2026-04-30 21:55 | 24.59693 | 120.40714 | 24019 ft | 448 kts | 217° |
| 2026-04-30 21:56 | 24.57119 | 120.38788 | 24377 ft | 448 kts | 217° |
| 2026-04-30 21:56 | 24.54534 | 120.36833 | 24585 ft | 452 kts | 217° |
| 2026-04-30 21:56 | 24.51947 | 120.34873 | 24952 ft | 452 kts | 217° |
| 2026-04-30 21:56 | 24.49352 | 120.32909 | 25240 ft | 454 kts | 217° |
| 2026-04-30 21:57 | 24.46744 | 120.30940 | 25499 ft | 456 kts | 217° |
| 2026-04-30 21:57 | 24.44132 | 120.28961 | 25827 ft | 456 kts | 217° |
| 2026-04-30 21:57 | 24.41528 | 120.26954 | 26092 ft | 458 kts | 218° |
| 2026-04-30 21:57 | 24.38919 | 120.24925 | 26339 ft | 461 kts | 218° |
| 2026-04-30 21:58 | 24.36301 | 120.22888 | 26639 ft | 462 kts | 218° |
| 2026-04-30 21:58 | 24.33677 | 120.20849 | 26944 ft | 463 kts | 218° |
| 2026-04-30 21:58 | 24.31042 | 120.18806 | 27170 ft | 466 kts | 218° |
| 2026-04-30 21:58 | 24.28421 | 120.16777 | 27401 ft | 468 kts | 218° |
| 2026-04-30 21:59 | 24.25721 | 120.14691 | 27657 ft | 470 kts | 218° |
| 2026-04-30 21:59 | 24.23081 | 120.12652 | 27937 ft | 471 kts | 218° |
| 2026-04-30 21:59 | 24.20402 | 120.10584 | 28210 ft | 471 kts | 218° |
| 2026-04-30 22:00 | 24.15022 | 120.06433 | 28672 ft | 474 kts | 218° |
| 2026-04-30 22:00 | 24.09619 | 120.02254 | 29115 ft | 477 kts | 218° |
| 2026-04-30 22:00 | 24.06905 | 120.00153 | 29312 ft | 479 kts | 218° |
| 2026-04-30 22:01 | 24.04183 | 119.98046 | 29487 ft | 480 kts | 218° |
| 2026-04-30 22:01 | 24.01448 | 119.95933 | 29676 ft | 482 kts | 218° |
| 2026-04-30 22:01 | 23.98705 | 119.93817 | 29860 ft | 483 kts | 218° |
| 2026-04-30 22:01 | 23.95958 | 119.91700 | 29958 ft | 485 kts | 218° |
| 2026-04-30 22:02 | 23.90442 | 119.87455 | 30102 ft | 485 kts | 218° |
| 2026-04-30 22:02 | 23.87689 | 119.85336 | 30338 ft | 483 kts | 218° |
| 2026-04-30 22:02 | 23.84946 | 119.83227 | 30615 ft | 481 kts | 218° |
| 2026-04-30 22:03 | 23.82218 | 119.81130 | 30912 ft | 478 kts | 218° |
| 2026-04-30 22:03 | 23.79496 | 119.79038 | 30964 ft | 480 kts | 218° |
| 2026-04-30 22:03 | 23.74040 | 119.74847 | 31023 ft | 479 kts | 218° |
| 2026-04-30 22:04 | 23.68606 | 119.70677 | 31023 ft | 477 kts | 218° |
| 2026-04-30 22:05 | 23.60757 | 119.64121 | 31017 ft | 471 kts | 227° |
| 2026-04-30 22:05 | 23.56535 | 119.58711 | 31023 ft | 468 kts | 238° |
| 2026-04-30 22:06 | 23.53059 | 119.52733 | 31023 ft | 467 kts | 240° |
| 2026-04-30 22:06 | 23.47903 | 119.43715 | 31032 ft | 468 kts | 239° |
| 2026-04-30 22:07 | 23.44430 | 119.37713 | 31026 ft | 468 kts | 239° |
| 2026-04-30 22:07 | 23.40946 | 119.31723 | 31030 ft | 468 kts | 239° |
| 2026-04-30 22:08 | 23.37460 | 119.25738 | 31032 ft | 468 kts | 239° |
| 2026-04-30 22:08 | 23.33977 | 119.19764 | 31031 ft | 467 kts | 239° |
| 2026-04-30 22:09 | 23.30520 | 119.13839 | 31033 ft | 467 kts | 239° |
| 2026-04-30 22:09 | 23.27038 | 119.07879 | 31036 ft | 466 kts | 239° |
| 2026-04-30 22:10 | 23.23558 | 119.01929 | 31036 ft | 466 kts | 239° |
| 2026-04-30 22:10 | 23.20074 | 118.95980 | 31038 ft | 466 kts | 239° |
| 2026-04-30 22:11 | 23.14846 | 118.87064 | 31039 ft | 466 kts | 239° |
| 2026-04-30 22:12 | 23.11358 | 118.81123 | 31035 ft | 467 kts | 239° |
| 2026-04-30 22:12 | 23.07864 | 118.75181 | 31034 ft | 467 kts | 239° |
| 2026-04-30 22:13 | 23.04370 | 118.69243 | 31051 ft | 467 kts | 239° |
| 2026-04-30 22:13 | 23.00873 | 118.63307 | 31038 ft | 467 kts | 239° |
| 2026-04-30 22:14 | 22.97250 | 118.57461 | 31033 ft | 468 kts | 231° |
| 2026-04-30 22:14 | 22.92494 | 118.52618 | 31047 ft | 472 kts | 220° |
| 2026-04-30 22:15 | 22.86845 | 118.48940 | 31062 ft | 476 kts | 211° |
| 2026-04-30 22:15 | 22.80986 | 118.45576 | 31046 ft | 476 kts | 211° |
| 2026-04-30 22:16 | 22.76138 | 118.42739 | 31039 ft | 477 kts | 212° |
| 2026-04-30 22:17 | 22.64518 | 118.35869 | 31749 ft | 472 kts | 212° |
| 2026-04-30 22:17 | 22.61640 | 118.34182 | 31967 ft | 470 kts | 212° |
| 2026-04-30 22:17 | 22.55883 | 118.30807 | 32038 ft | 470 kts | 212° |
| 2026-04-30 22:18 | 22.47272 | 118.25760 | 32033 ft | 468 kts | 212° |
| 2026-04-30 22:19 | 22.38697 | 118.20738 | 32033 ft | 467 kts | 212° |
| 2026-04-30 22:20 | 22.30136 | 118.15710 | 32023 ft | 467 kts | 212° |
| 2026-04-30 22:20 | 22.26356 | 118.13493 | 32025 ft | 467 kts | 212° |